Terminal Aerodrome Forecast
Issued by NWS

Home | Current Version | Previous Version | Text Only | Print | Product List | Glossary On
Versions: 1 2 3 4 5 6 7 8 9 10 11 12 13
000
FTUS44 KBMX 292300
TAFANB
TAF
KANB 292337Z 3000/3024 22007KT P6SM SCT050 BKN100
     FM300300 29009KT P6SM OVC040
     FM300500 33012G20KT P6SM OVC025
     FM300900 34010KT P6SM BKN035
     FM301400 36012KT P6SM SCT025 BKN250=

USA.gov is the U.S. government's official web portal to all federal, state and local government web resources and services.